createdAt,value
2023-03-15T00:01:19.361Z,98169.33
2023-03-15T00:03:46.779Z,98187.42
2023-03-15T00:06:15.994Z,98190.89
2023-03-15T00:08:47.037Z,98195.58
2023-03-15T00:11:16.654Z,98203.35
2023-03-15T00:13:46.228Z,98208.36
2023-03-15T00:16:18.512Z,98213.44
2023-03-15T00:18:50.111Z,98226.09
2023-03-15T00:21:16.758Z,98231.69
2023-03-15T00:23:45.557Z,98247.29
2023-03-15T00:26:12.639Z,98254.15
2023-03-15T00:28:41.817Z,98257.70
2023-03-15T00:31:15.810Z,98265.65
2023-03-15T00:33:45.326Z,98273.52
2023-03-15T00:36:14.737Z,98283.16
2023-03-15T00:38:43.852Z,98286.91
2023-03-15T00:41:13.374Z,98292.22
2023-03-15T00:43:41.504Z,98297.55
2023-03-15T00:46:08.366Z,98290.21
2023-03-15T00:48:35.772Z,98295.95
2023-03-15T00:51:03.141Z,98304.08
2023-03-15T00:53:35.563Z,98317.19
2023-03-15T00:56:11.322Z,98330.52
2023-03-15T00:58:38.581Z,98337.58
2023-03-15T01:01:20.412Z,98356.13
2023-03-15T01:03:49.976Z,98367.02
2023-03-15T01:06:21.370Z,98369.41
2023-03-15T01:48:54.655Z,98372.86
2023-03-15T01:52:15.638Z,98381.05
2023-03-15T01:55:29.346Z,98391.38
2023-03-15T01:58:39.626Z,98400.92
2023-03-15T02:01:34.608Z,98417.47
2023-03-15T02:04:55.344Z,98431.58
2023-03-15T02:08:00.643Z,98439.98
2023-03-15T02:11:09.641Z,98448.64
2023-03-15T02:14:10.599Z,98455.02
2023-03-15T02:17:10.582Z,98463.66
2023-03-15T02:20:16.588Z,98467.11
2023-03-15T02:23:47.463Z,98473.76
2023-03-15T02:40:38.332Z,98577.69
2023-03-15T03:51:27.402Z,98687.43
2023-03-15T04:52:50.257Z,98797.45
2023-03-15T05:17:36.308Z,98805.86
2023-03-15T08:05:39.409Z,99072.39
2023-03-15T08:08:06.752Z,99090.63
2023-03-15T08:10:36.073Z,99081.84
2023-03-15T08:13:02.896Z,99079.38
2023-03-15T08:15:29.504Z,99082.69
2023-03-15T08:17:56.116Z,99085.93
2023-03-15T08:20:29.975Z,99094.17
2023-03-15T08:23:02.033Z,99106.80
2023-03-15T08:25:35.920Z,99104.83
2023-03-15T08:28:02.418Z,99107.22
2023-03-15T08:30:28.797Z,99108.73
2023-03-15T08:32:57.701Z,99110.90
2023-03-15T08:35:27.005Z,99127.42
2023-03-15T08:37:55.909Z,99135.73
2023-03-15T08:40:25.411Z,99141.22
2023-03-15T08:42:57.882Z,99142.84
2023-03-15T08:45:25.721Z,99156.20
2023-03-15T08:47:56.644Z,99157.26
2023-03-15T08:50:24.023Z,99156.19
2023-03-15T08:52:53.842Z,99170.71
2023-03-15T08:55:20.460Z,99184.36
2023-03-15T08:57:47.259Z,99183.05
2023-03-15T09:00:19.977Z,99191.08
2023-03-15T09:02:51.215Z,99195.51
2023-03-15T09:05:21.149Z,99200.55
2023-03-15T09:07:48.064Z,99209.41
2023-03-15T09:10:18.692Z,99213.25
2023-03-15T09:12:51.494Z,99222.20
2023-03-15T09:15:18.622Z,99233.09
2023-03-15T09:17:55.614Z,99245.48
2023-03-15T09:20:27.487Z,99248.23
2023-03-15T09:22:57.885Z,99257.05
2023-03-15T09:25:26.991Z,99264.07
2023-03-15T09:27:55.917Z,99256.32
2023-03-15T09:30:32.052Z,99250.25
2023-03-15T09:33:01.068Z,99264.71
2023-03-15T09:35:32.112Z,99267.85
2023-03-15T09:37:59.979Z,99274.05
2023-03-15T09:40:31.801Z,99281.36
2023-03-15T09:43:09.560Z,99269.66
2023-03-15T09:46:09.070Z,99269.20
2023-03-15T09:48:53.552Z,99255.29
2023-03-15T09:51:35.313Z,99242.60
2023-03-15T09:54:11.391Z,99237.40
2023-03-15T09:57:01.471Z,99234.34
2023-03-15T09:59:42.961Z,99220.19
2023-03-15T10:02:23.436Z,99227.86
2023-03-15T10:05:01.429Z,99220.67
2023-03-15T10:07:28.015Z,99212.84
2023-03-15T10:10:00.762Z,99206.42
2023-03-15T10:12:40.073Z,99205.89
2023-03-15T10:15:32.063Z,99224.89
2023-03-15T10:18:27.046Z,99213.46
2023-03-15T10:21:03.688Z,99220.42
2023-03-15T10:23:46.485Z,99225.75
2023-03-15T10:26:23.733Z,99220.71
2023-03-15T10:28:55.107Z,99221.70
2023-03-15T10:31:41.419Z,99222.94
2023-03-15T10:34:16.171Z,99212.53
2023-03-15T10:36:49.217Z,99208.60
2023-03-15T10:39:16.100Z,99213.02
2023-03-15T10:41:50.088Z,99211.67
2023-03-15T10:44:23.761Z,99206.18
2023-03-15T10:47:23.050Z,99208.35
2023-03-15T10:49:57.474Z,99222.02
2023-03-15T10:52:48.909Z,99224.00
2023-03-15T10:55:31.313Z,99231.08
2023-03-15T10:58:11.347Z,99231.70
2023-03-15T11:00:52.201Z,99227.52
2023-03-15T11:03:24.005Z,99239.52
2023-03-15T11:05:55.110Z,99231.98
2023-03-15T11:08:43.366Z,99219.98
2023-03-15T11:11:10.170Z,99212.29
2023-03-15T11:13:43.595Z,99213.95
2023-03-15T11:16:13.070Z,99222.63
2023-03-15T11:18:46.879Z,99226.96
2023-03-15T11:21:19.688Z,99231.89
2023-03-15T11:23:49.039Z,99238.98
2023-03-15T11:26:37.107Z,99239.55
2023-03-15T11:29:14.946Z,99233.57
2023-03-15T11:31:44.284Z,99232.98
2023-03-15T11:34:38.670Z,99233.84
2023-03-15T11:37:17.046Z,99248.87
2023-03-15T11:40:11.734Z,99233.39
2023-03-15T11:42:56.736Z,99232.06
2023-03-15T11:45:40.151Z,99234.56
2023-03-15T11:48:33.677Z,99240.70
2023-03-15T11:51:03.766Z,99250.89
2023-03-15T11:53:42.619Z,99257.91
2023-03-15T11:56:46.843Z,99253.73
2023-03-15T11:59:19.891Z,99255.08
2023-03-15T12:01:51.466Z,99249.92
2023-03-15T12:04:32.375Z,99251.33
2023-03-15T12:07:25.060Z,99251.27
2023-03-15T12:10:16.056Z,99269.54
2023-03-15T12:12:46.435Z,99275.88
2023-03-15T12:15:19.039Z,99274.59
2023-03-15T12:17:59.482Z,99277.47
2023-03-15T12:20:40.282Z,99277.77
2023-03-15T12:23:17.627Z,99279.80
2023-03-15T12:26:07.700Z,99277.51
2023-03-15T12:28:40.698Z,99281.86
2023-03-15T12:31:12.313Z,99287.17
2023-03-15T12:33:48.951Z,99284.42
2023-03-15T12:36:37.366Z,99279.88
2023-03-15T12:39:15.971Z,99279.30
2023-03-15T12:41:50.940Z,99272.79
2023-03-15T12:44:27.270Z,99280.54
2023-03-15T12:46:58.285Z,99280.38
2023-03-15T12:49:32.780Z,99288.54
2023-03-15T12:52:13.003Z,99284.79
2023-03-15T12:55:08.171Z,99277.98
2023-03-15T12:57:46.215Z,99290.23
2023-03-15T13:00:16.053Z,99292.43
2023-03-15T13:03:08.112Z,99278.76
2023-03-15T13:06:02.851Z,99287.57
2023-03-15T14:19:28.545Z,99324.20
2023-03-15T14:22:02.190Z,99332.94
2023-03-15T14:24:40.545Z,99347.45
2023-03-15T14:27:22.276Z,99331.71
2023-03-15T14:29:53.788Z,99319.45
2023-03-15T14:32:30.117Z,99325.04
2023-03-15T14:35:04.391Z,99324.39
2023-03-15T14:37:43.386Z,99335.07
2023-03-15T14:40:21.283Z,99338.11
2023-03-15T14:42:50.560Z,99329.83
2023-03-15T14:45:21.589Z,99338.03
2023-03-15T14:47:57.164Z,99333.16
2023-03-15T14:50:34.649Z,99328.36
2023-03-15T14:53:02.311Z,99335.14
2023-03-15T14:55:34.082Z,99337.61
2023-03-15T14:58:12.097Z,99325.12
2023-03-15T15:00:39.348Z,99323.73
2023-03-15T15:03:16.565Z,99335.33
2023-03-15T15:05:45.997Z,99336.77
2023-03-15T15:08:21.483Z,99332.98
2023-03-15T15:10:50.302Z,99346.55
2023-03-15T15:13:27.282Z,99343.19
2023-03-15T15:15:57.498Z,99343.23
2023-03-15T15:18:26.064Z,99340.34
2023-03-15T15:21:02.283Z,99343.77
2023-03-15T15:23:31.265Z,99348.71
2023-03-15T15:26:08.758Z,99343.28
2023-03-15T15:28:41.598Z,99343.52
2023-03-15T15:31:17.815Z,99349.42
2023-03-15T15:33:46.960Z,99358.55
2023-03-15T15:36:18.667Z,99356.17
2023-03-15T15:38:50.415Z,99358.67
2023-03-15T15:41:27.302Z,99367.64
2023-03-15T15:43:59.959Z,99361.89
2023-03-15T15:46:27.198Z,99359.11
2023-03-15T15:48:58.175Z,99373.61
2023-03-15T15:51:30.994Z,99374.85
2023-03-15T15:54:01.693Z,99372.14
2023-03-15T15:56:39.479Z,99379.45
2023-03-15T15:59:16.932Z,99384.73
2023-03-15T16:02:00.055Z,99386.95
2023-03-15T16:04:33.095Z,99396.50
2023-03-15T16:07:03.801Z,99410.09
2023-03-15T16:09:37.005Z,99406.93
2023-03-15T16:12:13.499Z,99401.30
2023-03-15T16:14:41.033Z,99403.67
2023-03-15T16:17:11.137Z,99408.79
2023-03-15T16:19:39.847Z,99409.98
2023-03-15T16:22:11.218Z,99415.19
2023-03-15T16:24:44.789Z,99421.73
2023-03-15T16:27:15.361Z,99424.67
2023-03-15T16:29:49.383Z,99428.77
2023-03-15T16:32:36.742Z,99433.32
2023-03-15T16:35:16.626Z,99472.13
2023-03-15T16:37:46.060Z,99469.23
2023-03-15T16:40:28.727Z,99478.48
2023-03-15T16:42:55.974Z,99476.61
2023-03-15T16:45:27.890Z,99479.85
2023-03-15T16:47:57.142Z,99484.92
2023-03-15T16:50:23.671Z,99497.96
2023-03-15T16:52:54.409Z,99489.70
2023-03-15T16:55:24.957Z,99489.33
2023-03-15T16:57:53.771Z,99492.77
2023-03-15T17:00:21.521Z,99496.34
2023-03-15T17:02:59.290Z,99495.27
2023-03-15T17:05:28.593Z,99497.02
2023-03-15T17:07:55.496Z,99501.61
2023-03-15T17:10:25.091Z,99510.61
2023-03-15T17:12:55.177Z,99520.48
2023-03-15T17:15:30.177Z,99519.36
2023-03-15T17:17:57.046Z,99528.13
2023-03-15T17:20:30.716Z,99534.46
2023-03-15T17:23:05.736Z,99554.67
2023-03-15T17:25:38.357Z,99574.18
2023-03-15T17:28:07.669Z,99589.73
2023-03-15T17:30:38.495Z,99618.55
2023-03-15T17:33:07.724Z,99652.85
2023-03-15T17:35:46.474Z,99679.47
2023-03-15T17:38:18.741Z,99683.71
2023-03-15T17:40:50.772Z,99688.36
2023-03-15T17:43:20.568Z,99691.85
2023-03-15T17:45:47.056Z,99698.52
2023-03-15T17:48:14.738Z,99706.52
2023-03-15T17:50:43.864Z,99714.08
2023-03-15T17:53:16.810Z,99717.89
2023-03-15T17:55:49.146Z,99722.63
2023-03-15T17:58:21.021Z,99739.84
2023-03-15T18:00:53.897Z,99759.26
2023-03-15T18:03:22.270Z,99780.12
2023-03-15T18:05:52.201Z,99783.16
2023-03-15T18:08:21.606Z,99784.38
2023-03-15T18:10:51.238Z,99783.23
2023-03-15T18:13:21.000Z,99780.38
2023-03-15T18:15:54.167Z,99773.60
2023-03-15T18:18:23.412Z,99767.60
2023-03-15T18:20:58.943Z,99759.78
2023-03-15T18:23:25.463Z,99759.44
2023-03-15T18:25:59.161Z,99748.14
2023-03-15T18:28:30.341Z,99738.38
2023-03-15T18:31:01.892Z,99730.67
2023-03-15T18:33:29.597Z,99728.45
2023-03-15T18:35:56.761Z,99725.44
2023-03-15T18:38:23.427Z,99720.25
2023-03-15T18:40:54.829Z,99715.73
2023-03-15T18:43:26.702Z,99716.42
2023-03-15T18:45:56.065Z,99715.09
2023-03-15T18:48:40.066Z,99705.30
2023-03-15T18:51:11.433Z,99702.08
2023-03-15T18:53:44.673Z,99703.83
2023-03-15T18:56:21.421Z,99708.05
2023-03-15T18:58:49.575Z,99711.59
2023-03-15T19:01:21.624Z,99719.88
2023-03-15T19:03:54.266Z,99722.33
2023-03-15T19:06:22.618Z,99726.11
2023-03-15T19:08:52.673Z,99723.87
2023-03-15T19:11:23.251Z,99723.48
2023-03-15T19:13:55.256Z,99722.27
2023-03-15T19:16:24.763Z,99717.63
2023-03-15T19:18:58.606Z,99719.64
2023-03-15T19:21:27.650Z,99719.97
2023-03-15T19:23:59.106Z,99721.52
2023-03-15T19:26:28.308Z,99718.30
2023-03-15T19:29:03.381Z,99719.15
2023-03-15T19:31:32.675Z,99718.02
2023-03-15T19:34:02.389Z,99721.70
2023-03-15T19:36:31.468Z,99718.89
2023-03-15T19:39:04.863Z,99728.33
2023-03-15T19:41:31.291Z,99731.11
2023-03-15T19:43:58.129Z,99736.56
2023-03-15T19:46:27.929Z,99733.56
2023-03-15T19:48:54.415Z,99735.45
2023-03-15T19:51:23.489Z,99740.70
2023-03-15T19:53:51.952Z,99741.89
2023-03-15T19:56:20.858Z,99738.94
2023-03-15T19:58:50.647Z,99742.27
2023-03-15T20:01:17.273Z,99746.39
2023-03-15T20:03:46.218Z,99748.58
2023-03-15T20:06:13.740Z,99746.64
2023-03-15T20:08:43.579Z,99745.63
2023-03-15T20:11:19.505Z,99752.95
2023-03-15T20:13:56.855Z,99751.02
2023-03-15T20:16:23.579Z,99756.48
2023-03-15T20:18:50.705Z,99753.24
2023-03-15T20:21:18.178Z,99757.91
2023-03-15T20:23:47.481Z,99757.88
2023-03-15T20:26:16.141Z,99762.16
2023-03-15T20:28:49.894Z,99766.01
2023-03-15T20:31:17.995Z,99761.83
2023-03-15T20:33:49.008Z,99760.96
2023-03-15T20:36:18.783Z,99760.13
2023-03-15T20:38:51.185Z,99759.03
2023-03-15T20:41:20.238Z,99757.50
2023-03-15T20:43:51.659Z,99760.14
2023-03-15T20:46:23.996Z,99760.38
2023-03-15T20:48:59.298Z,99764.38
2023-03-15T20:51:30.920Z,99755.10
2023-03-15T20:53:57.732Z,99752.69
2023-03-15T20:56:33.229Z,99752.86
2023-03-15T20:59:11.451Z,99753.27
2023-03-15T21:01:38.056Z,99755.59
2023-03-15T21:04:12.460Z,99758.66
2023-03-15T21:06:41.215Z,99759.72
2023-03-15T21:09:07.897Z,99761.79
2023-03-15T21:11:37.022Z,99764.48
2023-03-15T21:14:03.623Z,99764.05
2023-03-15T21:16:32.815Z,99763.53
2023-03-15T21:19:00.918Z,99767.63
2023-03-15T21:21:27.879Z,99766.98
2023-03-15T21:23:56.936Z,99770.60
2023-03-15T21:26:23.727Z,99772.86
2023-03-15T21:29:01.046Z,99772.48
2023-03-15T21:31:27.774Z,99778.38
2023-03-15T21:33:57.640Z,99777.95
2023-03-15T21:36:29.326Z,99778.60
2023-03-15T21:39:01.378Z,99781.63
2023-03-15T21:41:28.139Z,99782.69
2023-03-15T21:43:59.250Z,99785.31
2023-03-15T21:46:31.050Z,99785.80
2023-03-15T21:49:03.895Z,99786.50
2023-03-15T21:51:34.017Z,99784.62
2023-03-15T21:54:02.918Z,99786.55
2023-03-15T21:56:34.255Z,99789.60
2023-03-15T21:59:06.707Z,99790.94
2023-03-15T22:01:53.034Z,99793.51
2023-03-15T22:04:40.410Z,99785.41
2023-03-15T22:22:37.515Z,99795.44
2023-03-15T22:25:04.742Z,99797.11
2023-03-15T22:27:33.645Z,99797.31
2023-03-15T22:30:03.954Z,99796.62
2023-03-15T22:32:32.736Z,99794.21
2023-03-15T22:34:59.489Z,99799.85
2023-03-15T22:37:26.141Z,99795.44
2023-03-15T22:54:02.488Z,99806.76
2023-03-15T22:56:29.462Z,99804.02
2023-03-15T22:59:01.277Z,99805.55
2023-03-15T23:01:28.513Z,99803.33
2023-03-15T23:22:24.650Z,99805.20
2023-03-15T23:25:03.999Z,99805.57
2023-03-15T23:27:31.269Z,99805.48
2023-03-15T23:29:58.573Z,99806.56
2023-03-15T23:32:25.755Z,99808.02
2023-03-15T23:34:53.202Z,99807.63
2023-03-15T23:37:20.220Z,99809.48
2023-03-15T23:39:52.765Z,99807.99
2023-03-15T23:42:25.170Z,99812.20
2023-03-15T23:44:53.977Z,99812.27
2023-03-15T23:47:28.628Z,99813.29
2023-03-15T23:49:55.352Z,99816.00
2023-03-15T23:52:25.772Z,99815.77
2023-03-15T23:54:54.783Z,99816.04
2023-03-15T23:57:21.445Z,99811.24
2023-03-15T23:59:48.229Z,99814.85
